createdAt,value
2019-04-13T00:02:29.549Z,54.29
2019-04-13T00:05:37.946Z,54.27
2019-04-13T00:08:15.406Z,54.17
2019-04-13T00:11:24.436Z,54.17
2019-04-13T00:13:59.942Z,53.94
2019-04-13T00:16:34.678Z,53.74
2019-04-13T00:19:09.289Z,54.02
2019-04-13T00:21:44.289Z,54.23
2019-04-13T00:24:19.128Z,54.39
2019-04-13T00:26:54.330Z,54.39
2019-04-13T00:29:29.206Z,54.85
2019-04-13T00:32:04.292Z,54.77
2019-04-13T00:34:41.681Z,55.00
2019-04-13T00:37:17.519Z,55.14
2019-04-13T00:39:52.304Z,55.46
2019-04-13T00:42:27.289Z,55.49
2019-04-13T00:45:02.397Z,55.62
2019-04-13T00:47:37.291Z,55.63
2019-04-13T00:50:11.953Z,55.68
2019-04-13T00:52:45.401Z,55.50
2019-04-13T00:55:20.271Z,55.33
2019-04-13T00:57:55.961Z,55.11
2019-04-13T01:00:30.325Z,55.67
2019-04-13T01:03:04.966Z,55.67
2019-04-13T01:05:39.668Z,56.42
2019-04-13T01:08:14.310Z,56.42
2019-04-13T01:10:49.009Z,56.28
2019-04-13T01:13:23.951Z,56.54
2019-04-13T01:15:58.762Z,56.54
2019-04-13T01:18:32.253Z,56.69
2019-04-13T01:21:08.158Z,56.44
2019-04-13T01:23:42.767Z,56.70
2019-04-13T01:26:16.485Z,56.70
2019-04-13T01:28:50.952Z,56.61
2019-04-13T01:31:24.280Z,56.72
2019-04-13T01:33:58.765Z,56.59
2019-04-13T01:36:33.010Z,56.59
2019-04-13T01:39:08.041Z,56.69
2019-04-13T01:41:42.308Z,56.95
2019-04-13T01:44:16.970Z,56.86
2019-04-13T01:46:51.285Z,57.05
2019-04-13T01:49:26.720Z,56.97
2019-04-13T01:54:47.803Z,56.92
2019-04-13T01:57:22.303Z,56.92
2019-04-13T01:59:56.981Z,57.05
2019-04-13T02:02:51.275Z,57.32
2019-04-13T02:05:44.468Z,57.18
2019-04-13T02:08:43.693Z,57.18
2019-04-13T02:11:21.534Z,57.32
2019-04-13T02:13:56.137Z,57.39
2019-04-13T02:16:30.870Z,57.78
2019-04-13T02:19:03.797Z,57.78
2019-04-13T02:21:38.297Z,57.83
2019-04-13T02:24:12.960Z,57.75
2019-04-13T02:26:48.134Z,57.70
2019-04-13T02:29:22.721Z,57.70
2019-04-13T02:31:57.290Z,57.90
2019-04-13T02:34:34.657Z,57.87
2019-04-13T02:37:09.288Z,57.81
2019-04-13T02:39:43.893Z,58.15
2019-04-13T02:42:17.284Z,58.26
2019-04-13T02:44:52.752Z,58.21
2019-04-13T02:47:26.938Z,58.42
2019-04-13T02:50:01.288Z,58.37
2019-04-13T02:52:35.755Z,58.57
2019-04-13T02:55:10.325Z,58.30
2019-04-13T02:57:44.836Z,58.31
2019-04-13T03:00:17.864Z,58.34
2019-04-13T03:02:52.272Z,58.34
2019-04-13T03:05:26.951Z,58.41
2019-04-13T03:07:59.995Z,58.47
2019-04-13T03:10:33.107Z,58.66
2019-04-13T03:13:08.322Z,58.88
2019-04-13T03:15:57.789Z,58.85
2019-04-13T03:18:36.566Z,58.77
2019-04-13T03:21:11.128Z,58.70
2019-04-13T03:23:45.747Z,58.91
2019-04-13T03:26:20.288Z,58.95
2019-04-13T03:28:54.736Z,59.03
2019-04-13T03:31:29.280Z,59.01
2019-04-13T03:34:03.751Z,59.04
2019-04-13T03:36:38.280Z,59.39
2019-04-13T03:39:12.904Z,59.49
2019-04-13T03:41:47.251Z,59.79
2019-04-13T03:44:21.795Z,59.96
2019-04-13T03:46:55.030Z,60.02
2019-04-13T03:49:27.895Z,60.14
2019-04-13T03:52:02.592Z,60.10
2019-04-13T03:54:37.286Z,60.25
2019-04-13T03:57:11.790Z,60.21
2019-04-13T03:59:44.846Z,60.31
2019-04-13T04:02:19.281Z,60.46
2019-04-13T04:04:53.704Z,60.61
2019-04-13T04:07:28.271Z,60.79
2019-04-13T04:10:02.919Z,60.93
2019-04-13T04:12:37.277Z,60.94
2019-04-13T04:15:12.247Z,61.14
2019-04-13T04:17:46.711Z,61.02
2019-04-13T04:20:21.399Z,61.19
2019-04-13T04:22:55.903Z,61.34
2019-04-13T04:25:28.911Z,61.41
2019-04-13T04:28:03.283Z,60.82
2019-04-13T04:30:37.945Z,60.82
2019-04-13T04:33:12.642Z,60.40
2019-04-13T04:35:47.211Z,60.31
2019-04-13T04:38:21.945Z,60.44
2019-04-13T04:40:54.812Z,60.51
2019-04-13T04:43:29.115Z,60.75
2019-04-13T04:46:03.874Z,60.61
2019-04-13T04:48:36.972Z,60.61
2019-04-13T04:51:11.700Z,60.67
2019-04-13T04:53:44.698Z,60.84
2019-04-13T04:56:18.975Z,61.04
2019-04-13T04:58:53.413Z,61.07
2019-04-13T05:01:27.952Z,61.09
2019-04-13T05:04:01.034Z,60.93
2019-04-13T05:06:35.923Z,60.98
2019-04-13T05:09:09.737Z,60.76
2019-04-13T05:11:44.277Z,61.02
2019-04-13T05:14:18.892Z,61.09
2019-04-13T05:16:53.107Z,61.37
2019-04-13T05:19:27.712Z,60.94
2019-04-13T05:22:02.289Z,60.94
2019-04-13T05:24:36.951Z,61.01
2019-04-13T05:27:09.863Z,61.15
2019-04-13T05:29:44.283Z,60.69
2019-04-13T05:34:29.688Z,60.27
2019-04-13T05:37:04.700Z,60.47
2019-04-13T05:39:39.235Z,60.72
2019-04-13T05:42:13.686Z,60.57
2019-04-13T05:44:49.272Z,60.71
2019-04-13T05:47:23.716Z,60.55
2019-04-13T05:49:58.276Z,60.16
2019-04-13T05:52:33.941Z,59.73
2019-04-13T05:55:07.687Z,60.26
2019-04-13T05:57:42.261Z,60.00
2019-04-13T06:00:17.409Z,60.00
2019-04-13T06:02:51.951Z,59.85
2019-04-13T06:05:26.678Z,59.05
2019-04-13T06:09:12.681Z,58.84
2019-04-13T06:11:46.950Z,58.43
2019-04-13T06:14:21.280Z,58.20
2019-04-13T06:16:55.933Z,57.47
2019-04-13T06:19:30.299Z,57.47
2019-04-13T06:22:05.337Z,56.92
2019-04-13T06:24:40.502Z,56.80
2019-04-13T06:27:15.269Z,56.96
2019-04-13T06:29:50.111Z,56.34
2019-04-13T06:32:42.291Z,56.43
2019-04-13T06:35:23.887Z,56.05
2019-04-13T06:37:57.108Z,55.61
2019-04-13T06:40:31.870Z,54.64
2019-04-13T06:43:05.277Z,54.64
2019-04-13T06:45:40.271Z,54.64
2019-04-13T06:48:14.946Z,54.34
2019-04-13T06:50:49.347Z,53.74
2019-04-13T06:53:23.886Z,53.51
2019-04-13T06:55:56.872Z,53.38
2019-04-13T06:58:31.111Z,53.08
2019-04-13T07:01:05.931Z,52.69
2019-04-13T07:03:40.654Z,52.98
2019-04-13T07:06:15.271Z,52.98
2019-04-13T07:09:06.325Z,52.39
2019-04-13T07:11:56.998Z,52.54
2019-04-13T07:14:32.703Z,52.74
2019-04-13T07:17:14.497Z,52.57
2019-04-13T07:19:49.313Z,51.58
2019-04-13T07:22:23.783Z,51.58
2019-04-13T07:24:59.083Z,50.70
2019-04-13T07:27:33.010Z,50.54
2019-04-13T07:30:07.754Z,50.11
2019-04-13T07:32:40.805Z,50.11
2019-04-13T07:35:14.108Z,49.45
2019-04-13T07:37:49.618Z,49.20
2019-04-13T07:40:24.142Z,49.20
2019-04-13T07:45:35.217Z,48.79
2019-04-13T07:48:19.471Z,48.13
2019-04-13T07:51:04.946Z,48.87
2019-04-13T07:53:38.015Z,48.58
2019-04-13T07:56:12.347Z,48.22
2019-04-13T07:58:47.416Z,48.22
2019-04-13T08:01:23.326Z,48.70
2019-04-13T08:03:57.099Z,48.38
2019-04-13T08:06:31.667Z,48.47
2019-04-13T08:09:07.787Z,48.47
2019-04-13T08:11:42.342Z,48.39
2019-04-13T08:14:21.362Z,47.88
2019-04-13T08:16:56.217Z,47.53
2019-04-13T08:19:35.781Z,48.01
2019-04-13T08:22:10.094Z,48.01
2019-04-13T08:24:48.374Z,47.48
2019-04-13T08:27:21.285Z,47.48
2019-04-13T08:29:55.769Z,47.47
2019-04-13T08:32:34.841Z,47.55
2019-04-13T08:35:07.116Z,47.65
2019-04-13T08:37:52.869Z,46.58
2019-04-13T08:41:11.166Z,46.21
2019-04-13T08:43:40.930Z,45.54
2019-04-13T08:46:15.335Z,45.72
2019-04-13T08:48:49.877Z,45.20
2019-04-13T08:51:22.865Z,44.82
2019-04-13T08:53:57.113Z,43.86
2019-04-13T08:56:31.732Z,41.88
2019-04-13T08:59:06.276Z,41.88
2019-04-13T09:01:40.702Z,42.53
2019-04-13T09:04:15.109Z,41.80
2019-04-13T09:06:49.759Z,39.46
2019-04-13T09:09:22.718Z,39.46
2019-04-13T09:11:57.952Z,38.71
2019-04-13T09:14:34.696Z,38.63
2019-04-13T09:17:12.428Z,36.45
2019-04-13T09:19:51.294Z,36.28
2019-04-13T09:22:26.877Z,35.84
2019-04-13T09:25:01.322Z,36.21
2019-04-13T09:27:40.334Z,37.24
2019-04-13T09:30:12.268Z,38.28
2019-04-13T09:32:46.683Z,37.54
2019-04-13T09:35:25.275Z,37.32
2019-04-13T09:37:57.265Z,38.65
2019-04-13T09:40:31.947Z,39.98
2019-04-13T09:45:03.530Z,41.16
2019-04-13T09:48:50.258Z,41.79
2019-04-13T09:51:24.765Z,41.79
2019-04-13T09:53:57.774Z,42.33
2019-04-13T09:56:37.550Z,42.74
2019-04-13T09:59:10.775Z,43.00
2019-04-13T10:01:45.500Z,43.40
2019-04-13T10:04:20.254Z,42.52
2019-04-13T10:06:54.685Z,42.29
2019-04-13T10:09:27.861Z,41.97
2019-04-13T10:12:08.296Z,41.25
2019-04-13T10:15:00.294Z,41.19
2019-04-13T10:17:54.341Z,40.75
2019-04-13T10:20:28.281Z,39.53
2019-04-13T10:25:22.955Z,37.68
2019-04-13T10:27:58.172Z,36.39
2019-04-13T10:30:32.871Z,36.39
2019-04-13T10:33:06.281Z,35.27
2019-04-13T10:35:40.347Z,35.05
2019-04-13T10:38:16.251Z,34.81
2019-04-13T10:40:50.949Z,33.01
2019-04-13T10:43:25.317Z,33.90
2019-04-13T10:46:17.315Z,33.17
2019-04-13T10:49:03.515Z,32.14
2019-04-13T10:51:50.323Z,30.85
2019-04-13T10:54:24.876Z,31.75
2019-04-13T10:56:59.574Z,32.74
2019-04-13T10:59:34.264Z,32.04
2019-04-13T11:02:21.684Z,30.86
2019-04-13T11:04:47.716Z,30.40
2019-04-13T11:07:21.994Z,30.40
2019-04-13T11:09:56.652Z,30.58
2019-04-13T11:12:31.130Z,30.58
2019-04-13T11:15:05.946Z,31.30
2019-04-13T11:17:40.889Z,31.30
2019-04-13T11:20:15.630Z,31.18
2019-04-13T11:22:58.480Z,32.08
2019-04-13T11:25:28.880Z,31.88
2019-04-13T11:28:02.388Z,31.19
2019-04-13T11:30:37.347Z,31.77
2019-04-13T11:33:11.753Z,32.25
2019-04-13T11:35:46.408Z,33.50
2019-04-13T11:38:21.290Z,33.66
2019-04-13T11:41:08.320Z,33.83
2019-04-13T11:44:19.903Z,34.34
2019-04-13T11:47:08.164Z,35.42
2019-04-13T11:49:42.778Z,38.35
2019-04-13T11:52:16.331Z,38.35
2019-04-13T11:55:37.945Z,38.53
2019-04-13T11:58:10.861Z,38.44
2019-04-13T12:01:06.529Z,38.88
2019-04-13T12:04:00.773Z,39.22
2019-04-13T12:06:47.400Z,39.34
2019-04-13T12:09:35.540Z,38.47
2019-04-13T12:12:27.290Z,36.94
2019-04-13T12:15:16.419Z,36.94
2019-04-13T12:18:00.537Z,36.92
2019-04-13T12:20:43.291Z,36.71
2019-04-13T12:23:18.289Z,36.71
2019-04-13T12:25:52.722Z,36.20
2019-04-13T12:28:27.249Z,36.83
2019-04-13T12:31:01.966Z,36.42
2019-04-13T12:33:36.331Z,36.64
2019-04-13T12:36:10.913Z,36.64
2019-04-13T12:38:50.169Z,37.06
2019-04-13T12:41:26.275Z,37.26
2019-04-13T12:44:02.118Z,37.26
2019-04-13T12:46:36.953Z,36.91
2019-04-13T12:49:11.278Z,35.73
2019-04-13T12:51:45.806Z,34.71
2019-04-13T12:54:19.944Z,35.19
2019-04-13T12:56:54.384Z,34.58
2019-04-13T12:59:28.901Z,34.66
2019-04-13T13:02:40.277Z,34.48
2019-04-13T13:05:23.668Z,33.70
2019-04-13T13:07:57.957Z,33.70
2019-04-13T13:10:32.314Z,33.50
2019-04-13T13:13:07.777Z,33.50
2019-04-13T13:15:42.779Z,34.05
2019-04-13T13:18:17.271Z,33.27
2019-04-13T13:20:51.677Z,33.22
2019-04-13T13:23:26.244Z,32.54
2019-04-13T13:26:01.699Z,33.50
2019-04-13T13:28:36.238Z,33.77
2019-04-13T13:31:10.900Z,34.11
2019-04-13T13:33:45.460Z,34.76
2019-04-13T13:36:20.949Z,35.10
2019-04-13T13:38:55.636Z,34.38
2019-04-13T13:41:29.948Z,34.38
2019-04-13T13:44:04.311Z,33.86
2019-04-13T13:46:38.785Z,34.57
2019-04-13T13:49:13.357Z,34.24
2019-04-13T13:51:55.999Z,34.09
2019-04-13T13:54:24.121Z,34.76
2019-04-13T13:57:00.424Z,34.77
2019-04-13T13:59:34.947Z,34.94
2019-04-13T14:02:26.651Z,35.80
2019-04-13T14:05:01.376Z,36.39
2019-04-13T14:07:35.952Z,36.35
2019-04-13T14:10:12.529Z,36.51
2019-04-13T14:12:47.277Z,36.51
2019-04-13T14:15:21.704Z,36.50
2019-04-13T14:17:56.251Z,35.20
2019-04-13T14:20:33.906Z,34.98
2019-04-13T14:23:06.945Z,34.69
2019-04-13T14:25:41.300Z,34.74
2019-04-13T14:28:15.891Z,34.29
2019-04-13T14:30:48.885Z,34.63
2019-04-13T14:33:21.862Z,34.26
2019-04-13T14:35:56.232Z,34.17
2019-04-13T14:38:30.763Z,34.86
2019-04-13T14:41:09.563Z,34.41
2019-04-13T14:43:41.946Z,34.74
2019-04-13T14:46:16.122Z,34.74
2019-04-13T14:48:50.704Z,34.10
2019-04-13T14:51:24.957Z,34.10
2019-04-13T14:53:59.325Z,33.32
2019-04-13T14:56:35.603Z,33.32
2019-04-13T14:59:09.898Z,32.33
2019-04-13T15:01:44.312Z,32.52
2019-04-13T15:04:18.874Z,33.43
2019-04-13T15:06:52.201Z,34.18
2019-04-13T15:09:29.426Z,34.12
2019-04-13T15:12:06.608Z,33.57
2019-04-13T15:14:41.296Z,33.41
2019-04-13T15:17:18.051Z,33.91
2019-04-13T15:20:01.700Z,34.33
2019-04-13T15:22:27.287Z,34.40
2019-04-13T15:25:04.291Z,34.10
2019-04-13T15:27:40.166Z,32.63
2019-04-13T15:30:16.010Z,32.50
2019-04-13T15:32:51.613Z,32.91
2019-04-13T15:35:26.103Z,33.62
2019-04-13T15:38:00.710Z,31.54
2019-04-13T15:40:37.550Z,31.54
2019-04-13T15:43:18.610Z,31.27
2019-04-13T15:45:50.658Z,31.05
2019-04-13T15:48:25.937Z,31.74
2019-04-13T15:51:00.275Z,31.66
2019-04-13T15:53:34.695Z,31.75
2019-04-13T15:56:09.089Z,31.75
2019-04-13T15:59:24.437Z,33.90
2019-04-13T16:01:59.495Z,33.90
2019-04-13T16:04:35.180Z,33.83
2019-04-13T16:07:09.763Z,34.10
2019-04-13T16:10:17.111Z,34.40
2019-04-13T16:12:55.734Z,35.05
2019-04-13T16:15:31.544Z,35.62
2019-04-13T16:18:06.665Z,35.97
2019-04-13T16:20:42.186Z,36.37
2019-04-13T16:23:17.455Z,36.81
2019-04-13T16:25:52.945Z,37.27
2019-04-13T16:28:33.608Z,36.97
2019-04-13T16:31:27.026Z,37.87
2019-04-13T16:34:21.470Z,38.09
2019-04-13T16:37:17.491Z,38.09
2019-04-13T16:39:52.095Z,38.19
2019-04-13T16:42:29.947Z,38.61
2019-04-13T16:45:23.347Z,38.61
2019-04-13T16:48:15.274Z,38.81
2019-04-13T16:50:57.502Z,40.02
2019-04-13T16:53:49.497Z,40.02
2019-04-13T16:56:27.958Z,39.76
2019-04-13T16:59:36.536Z,40.70
2019-04-13T17:02:44.938Z,40.70
2019-04-13T17:05:22.963Z,41.82
2019-04-13T17:07:59.031Z,41.92
2019-04-13T17:10:33.940Z,41.92
2019-04-13T17:13:07.614Z,42.35
2019-04-13T17:15:42.283Z,42.06
2019-04-13T17:18:23.163Z,41.96
2019-04-13T17:21:14.954Z,42.47
2019-04-13T17:24:13.639Z,42.81
2019-04-13T17:27:13.078Z,43.09
2019-04-13T17:29:54.435Z,43.57
2019-04-13T17:32:47.708Z,43.77
2019-04-13T17:35:26.392Z,43.92
2019-04-13T17:38:00.986Z,44.24
2019-04-13T17:40:42.748Z,44.47
2019-04-13T17:43:45.638Z,44.57
2019-04-13T17:46:49.400Z,44.93
2019-04-13T17:49:55.129Z,45.81
2019-04-13T17:52:57.202Z,46.13
2019-04-13T17:55:57.392Z,46.32
2019-04-13T17:58:56.985Z,47.04
2019-04-13T18:02:06.901Z,46.84
2019-04-13T18:04:53.832Z,47.16
2019-04-13T18:07:46.377Z,47.16
2019-04-13T18:10:52.949Z,47.34
2019-04-13T18:13:51.681Z,47.20
2019-04-13T18:16:30.119Z,47.42
2019-04-13T18:19:14.797Z,47.79
2019-04-13T18:21:49.301Z,48.13
2019-04-13T18:24:24.289Z,48.30
2019-04-13T18:26:58.923Z,48.46
2019-04-13T18:29:34.691Z,48.17
2019-04-13T18:32:09.289Z,48.17
2019-04-13T18:34:43.790Z,48.06
2019-04-13T18:37:18.117Z,47.95
2019-04-13T18:39:54.531Z,48.23
2019-04-13T18:42:28.979Z,48.23
2019-04-13T18:45:03.959Z,48.31
2019-04-13T18:47:39.281Z,48.38
2019-04-13T18:50:15.835Z,48.58
2019-04-13T18:52:50.982Z,48.65
2019-04-13T18:56:39.626Z,48.79
2019-04-13T18:59:15.163Z,48.82
2019-04-13T19:01:49.902Z,48.83
2019-04-13T19:04:25.254Z,48.73
2019-04-13T19:07:01.285Z,48.80
2019-04-13T19:09:35.942Z,48.80
2019-04-13T19:12:10.572Z,48.80
2019-04-13T19:14:45.098Z,48.78
2019-04-13T19:17:19.911Z,48.88
2019-04-13T19:19:54.679Z,48.80
2019-04-13T19:22:29.122Z,48.80
2019-04-13T19:25:03.645Z,49.13
2019-04-13T19:27:38.290Z,49.13
2019-04-13T19:30:12.887Z,48.86
2019-04-13T19:32:46.063Z,48.81
2019-04-13T19:35:18.867Z,48.99
2019-04-13T19:37:53.285Z,48.98
2019-04-13T19:40:27.685Z,49.23
2019-04-13T19:43:02.283Z,49.34
2019-04-13T19:45:37.285Z,49.33
2019-04-13T19:48:11.773Z,49.38
2019-04-13T19:50:45.107Z,49.55
2019-04-13T19:53:49.950Z,49.47
2019-04-13T19:56:26.122Z,49.45
2019-04-13T19:59:00.966Z,49.71
2019-04-13T20:01:35.465Z,49.75
2019-04-13T20:04:09.963Z,49.82
2019-04-13T20:06:43.041Z,49.88
2019-04-13T20:09:15.921Z,49.96
2019-04-13T20:11:48.709Z,50.04
2019-04-13T20:14:24.421Z,49.95
2019-04-13T20:16:59.904Z,49.95
2019-04-13T20:19:34.294Z,50.16
2019-04-13T20:22:08.726Z,50.33
2019-04-13T20:24:43.079Z,50.30
2019-04-13T20:27:17.714Z,49.97
2019-04-13T20:29:53.256Z,49.97
2019-04-13T20:32:27.877Z,50.24
2019-04-13T20:35:02.144Z,50.24
2019-04-13T20:37:37.956Z,50.24
2019-04-13T20:40:24.792Z,50.20
2019-04-13T20:43:59.585Z,50.37
2019-04-13T20:46:29.933Z,50.43
2019-04-13T20:49:04.688Z,50.74
2019-04-13T20:51:39.117Z,50.74
2019-04-13T20:54:13.874Z,50.55
2019-04-13T20:56:46.998Z,50.55
2019-04-13T20:59:20.033Z,50.23
2019-04-13T21:01:54.141Z,50.64
2019-04-13T21:04:28.782Z,50.54
2019-04-13T21:07:05.339Z,50.84
2019-04-13T21:09:39.937Z,51.08
2019-04-13T21:12:14.254Z,51.08
2019-04-13T21:14:50.437Z,51.55
2019-04-13T21:17:25.361Z,51.55
2019-04-13T21:20:01.175Z,51.63
2019-04-13T21:22:35.883Z,51.41
2019-04-13T21:26:10.906Z,51.38
2019-04-13T21:28:45.657Z,51.28
2019-04-13T21:31:20.289Z,51.28
2019-04-13T21:33:56.073Z,51.49
2019-04-13T21:36:30.571Z,51.39
2019-04-13T21:39:09.199Z,51.39
2019-04-13T21:41:43.869Z,51.29
2019-04-13T21:44:24.551Z,51.24
2019-04-13T21:46:52.754Z,51.41
2019-04-13T21:49:27.276Z,51.64
2019-04-13T21:52:16.990Z,51.92
2019-04-13T21:54:51.861Z,52.05
2019-04-13T21:57:26.438Z,52.05
2019-04-13T22:00:00.991Z,52.16
2019-04-13T22:02:37.692Z,52.67
2019-04-13T22:05:13.826Z,52.67
2019-04-13T22:07:48.087Z,52.85
2019-04-13T22:10:22.676Z,52.89
2019-04-13T22:12:57.097Z,52.89
2019-04-13T22:15:31.714Z,53.34
2019-04-13T22:18:06.219Z,53.34
2019-04-13T22:20:40.878Z,53.57
2019-04-13T22:23:14.964Z,53.68
2019-04-13T22:25:49.307Z,53.94
2019-04-13T22:28:27.844Z,53.94
2019-04-13T22:31:19.881Z,54.26
2019-04-13T22:33:54.783Z,54.30
2019-04-13T22:36:33.574Z,54.44
2019-04-13T22:39:09.876Z,54.55
2019-04-13T22:41:46.149Z,54.48
2019-04-13T22:44:20.780Z,53.96
2019-04-13T22:46:55.281Z,54.10
2019-04-13T22:49:34.344Z,54.13
2019-04-13T22:52:30.611Z,53.86
2019-04-13T22:55:27.458Z,54.24
2019-04-13T22:58:03.032Z,54.18
2019-04-13T23:00:45.562Z,54.36
2019-04-13T23:03:20.177Z,54.21
2019-04-13T23:05:56.699Z,54.38
2019-04-13T23:08:31.212Z,54.38
2019-04-13T23:11:06.706Z,54.90
2019-04-13T23:13:41.124Z,55.16
2019-04-13T23:16:15.653Z,55.16
2019-04-13T23:18:51.310Z,55.49
2019-04-13T23:21:26.485Z,55.43
2019-04-13T23:24:01.648Z,55.26
2019-04-13T23:26:36.263Z,55.10
2019-04-13T23:29:11.281Z,55.05
2019-04-13T23:31:45.690Z,54.99
2019-04-13T23:34:20.342Z,54.85
2019-04-13T23:36:55.209Z,54.78
2019-04-13T23:39:30.255Z,54.83
2019-04-13T23:42:04.906Z,54.95
2019-04-13T23:44:39.799Z,55.07
2019-04-13T23:47:12.666Z,55.24
2019-04-13T23:49:47.164Z,55.53
2019-04-13T23:52:21.942Z,55.78
2019-04-13T23:54:55.083Z,56.03
2019-04-13T23:57:55.551Z,56.03
